createdAt,value
2018-06-21T00:00:12.077Z,66.52
2018-06-21T00:00:52.685Z,66.52
2018-06-21T00:01:33.252Z,66.33
2018-06-21T00:02:13.841Z,65.98
2018-06-21T00:02:54.380Z,66.33
2018-06-21T00:03:34.919Z,66.52
2018-06-21T00:04:15.460Z,66.33
2018-06-21T00:04:56.042Z,66.43
2018-06-21T00:05:36.616Z,66.24
2018-06-21T00:06:17.175Z,66.43
2018-06-21T00:06:57.738Z,66.43
2018-06-21T00:07:38.292Z,66.72
2018-06-21T00:08:18.887Z,66.33
2018-06-21T00:08:59.440Z,66.33
2018-06-21T00:09:39.985Z,66.72
2018-06-21T00:10:20.565Z,66.72
2018-06-21T00:11:01.131Z,66.75
2018-06-21T00:11:41.668Z,66.72
2018-06-21T00:12:22.241Z,66.52
2018-06-21T00:13:02.806Z,66.52
2018-06-21T00:13:43.362Z,66.82
2018-06-21T00:14:23.907Z,66.43
2018-06-21T00:15:04.477Z,66.82
2018-06-21T00:15:45.045Z,67
2018-06-21T00:16:25.598Z,67
2018-06-21T00:17:06.159Z,66.91
2018-06-21T00:17:46.714Z,66.62
2018-06-21T00:18:27.277Z,67.3
2018-06-21T00:19:07.802Z,67.2
2018-06-21T00:19:48.393Z,67.1
2018-06-21T00:20:28.914Z,67.1
2018-06-21T00:21:09.502Z,67.3
2018-06-21T00:21:50.060Z,67.2
2018-06-21T00:22:30.656Z,67
2018-06-21T00:23:11.238Z,67.2
2018-06-21T00:23:51.771Z,67
2018-06-21T00:24:32.436Z,67.2
2018-06-21T00:25:12.987Z,67.49
2018-06-21T00:25:53.552Z,67.2
2018-06-21T00:26:34.104Z,66.72
2018-06-21T00:27:14.680Z,66.91
2018-06-21T00:27:55.240Z,67
2018-06-21T00:28:35.830Z,67.49
2018-06-21T00:29:16.382Z,67.49
2018-06-21T00:29:56.969Z,67.78
2018-06-21T00:30:37.535Z,67.68
2018-06-21T00:31:18.103Z,67.78
2018-06-21T00:31:58.679Z,67.78
2018-06-21T00:32:39.217Z,67.78
2018-06-21T00:33:19.783Z,67.78
2018-06-21T00:34:00.310Z,67.94
2018-06-21T00:34:40.878Z,67.97
2018-06-21T00:35:21.440Z,67.97
2018-06-21T00:36:01.988Z,67.78
2018-06-21T00:36:42.544Z,67.78
2018-06-21T00:37:23.110Z,67.78
2018-06-21T00:38:03.682Z,67.78
2018-06-21T00:38:44.252Z,68.35
2018-06-21T00:39:24.806Z,68.26
2018-06-21T00:40:05.384Z,68.26
2018-06-21T00:40:45.928Z,67.68
2018-06-21T00:41:26.497Z,67.68
2018-06-21T00:42:07.047Z,68.13
2018-06-21T00:42:47.607Z,68.26
2018-06-21T00:43:28.177Z,68.04
2018-06-21T00:44:08.740Z,68.13
2018-06-21T00:44:49.297Z,68.23
2018-06-21T00:45:29.884Z,68.13
2018-06-21T00:46:10.446Z,67.94
2018-06-21T00:46:51.031Z,68.32
2018-06-21T00:47:31.603Z,68.74
2018-06-21T00:48:12.172Z,68.61
2018-06-21T00:48:52.725Z,68.71
2018-06-21T00:49:33.265Z,68.32
2018-06-21T00:50:13.817Z,68.61
2018-06-21T00:50:54.436Z,68.61
2018-06-21T00:51:34.997Z,69.29
2018-06-21T00:52:15.552Z,69.38
2018-06-21T00:52:56.140Z,69.38
2018-06-21T00:53:36.709Z,68.61
2018-06-21T00:54:17.236Z,68.61
2018-06-21T00:54:57.785Z,69.09
2018-06-21T00:55:38.365Z,68.71
2018-06-21T00:56:18.897Z,68.71
2018-06-21T00:56:59.449Z,68.42
2018-06-21T00:57:39.983Z,69.19
2018-06-21T00:58:20.546Z,68.8
2018-06-21T00:59:01.094Z,68.71
2018-06-21T00:59:41.683Z,68.9
2018-06-21T01:00:22.239Z,69.29
2018-06-21T01:01:02.796Z,69.19
2018-06-21T01:01:43.358Z,69.67
2018-06-21T01:02:23.931Z,69.38
2018-06-21T01:03:04.521Z,69.48
2018-06-21T01:03:45.056Z,69.67
2018-06-21T01:04:25.611Z,69.57
2018-06-21T01:05:06.165Z,69.67
2018-06-21T01:05:46.736Z,69.67
2018-06-21T01:06:27.290Z,69.57
2018-06-21T01:07:07.912Z,69.57
2018-06-21T01:07:48.435Z,69.77
2018-06-21T01:08:29.025Z,69.67
2018-06-21T01:09:09.596Z,69.57
2018-06-21T01:09:50.167Z,69.38
2018-06-21T01:10:30.762Z,69.29
2018-06-21T01:11:11.324Z,69.57
2018-06-21T01:11:51.877Z,69.57
2018-06-21T01:12:32.448Z,69.29
2018-06-21T01:13:13.022Z,69.38
2018-06-21T01:13:53.602Z,69.48
2018-06-21T01:14:34.160Z,69.67
2018-06-21T01:15:14.729Z,69.77
2018-06-21T01:15:55.287Z,69.77
2018-06-21T01:16:35.898Z,69.96
2018-06-21T01:17:16.455Z,69.77
2018-06-21T01:17:57.055Z,70.35
2018-06-21T01:18:37.607Z,70.06
2018-06-21T01:19:18.166Z,69.96
2018-06-21T01:19:58.740Z,70.06
2018-06-21T01:20:39.359Z,70.15
2018-06-21T01:21:19.878Z,70.15
2018-06-21T01:22:00.448Z,70.25
2018-06-21T01:22:41.003Z,70.25
2018-06-21T01:23:21.574Z,70.15
2018-06-21T01:24:02.113Z,70.25
2018-06-21T01:24:42.677Z,70.06
2018-06-21T01:25:23.304Z,70.73
2018-06-21T01:26:03.807Z,70.64
2018-06-21T01:26:44.380Z,69.87
2018-06-21T01:27:24.942Z,70.44
2018-06-21T01:28:05.521Z,70.73
2018-06-21T01:28:46.090Z,70.54
2018-06-21T01:29:26.647Z,70.44
2018-06-21T01:30:07.215Z,70.54
2018-06-21T01:30:47.771Z,69.96
2018-06-21T01:31:28.358Z,70.64
2018-06-21T01:32:08.932Z,70.54
2018-06-21T01:32:49.556Z,70.54
2018-06-21T01:33:30.120Z,70.6
2018-06-21T01:34:10.702Z,70.41
2018-06-21T01:34:51.285Z,70.54
2018-06-21T01:35:31.840Z,70.31
2018-06-21T01:36:12.406Z,70.44
2018-06-21T01:36:52.965Z,70.5
2018-06-21T01:37:33.544Z,70.64
2018-06-21T01:38:14.101Z,70.5
2018-06-21T01:38:54.701Z,69.93
2018-06-21T01:39:35.265Z,69.93
2018-06-21T01:40:15.825Z,70.06
2018-06-21T01:40:56.385Z,70.5
2018-06-21T01:41:36.958Z,70.31
2018-06-21T01:42:17.523Z,70.12
2018-06-21T01:42:58.091Z,69.93
2018-06-21T01:43:38.648Z,70.31
2018-06-21T01:44:19.239Z,70.12
2018-06-21T01:44:59.762Z,70.21
2018-06-21T01:45:40.308Z,70.5
2018-06-21T01:46:20.871Z,70.02
2018-06-21T01:47:01.413Z,69.83
2018-06-21T01:47:41.991Z,70.21
2018-06-21T01:48:22.566Z,70.5
2018-06-21T01:49:03.139Z,70.31
2018-06-21T01:49:43.720Z,69.93
2018-06-21T01:50:24.343Z,70.21
2018-06-21T01:51:04.854Z,69.93
2018-06-21T01:51:45.419Z,70.12
2018-06-21T01:52:26.016Z,70.15
2018-06-21T01:53:06.569Z,70.21
2018-06-21T01:53:47.153Z,70.12
2018-06-21T01:54:27.727Z,69.93
2018-06-21T01:55:08.289Z,70.25
2018-06-21T01:55:48.852Z,69.77
2018-06-21T01:56:29.418Z,69.73
2018-06-21T01:57:09.992Z,70.12
2018-06-21T01:57:50.568Z,69.83
2018-06-21T01:58:31.148Z,69.73
2018-06-21T01:59:11.691Z,70.02
2018-06-21T01:59:52.254Z,70.31
2018-06-21T02:00:32.820Z,69.93
2018-06-21T02:01:13.391Z,70.31
2018-06-21T02:01:53.958Z,70.12
2018-06-21T02:02:34.518Z,70.21
2018-06-21T02:03:15.095Z,69.64
2018-06-21T02:03:55.670Z,69.54
2018-06-21T02:04:36.240Z,69.54
2018-06-21T02:05:16.793Z,69.93
2018-06-21T02:05:57.360Z,70.21
2018-06-21T02:06:37.934Z,70.31
2018-06-21T02:07:18.482Z,70.12
2018-06-21T02:07:59.059Z,70.02
2018-06-21T02:08:39.577Z,69.54
2018-06-21T02:09:20.136Z,69.73
2018-06-21T02:10:00.707Z,69.93
2018-06-21T02:10:41.281Z,69.83
2018-06-21T02:11:21.903Z,70.31
2018-06-21T02:12:02.488Z,70.12
2018-06-21T02:12:43.041Z,70.12
2018-06-21T02:13:23.603Z,70.02
2018-06-21T02:14:04.155Z,70.12
2018-06-21T02:14:44.734Z,69.64
2018-06-21T02:15:25.323Z,69.45
2018-06-21T02:16:05.886Z,69.54
2018-06-21T02:16:46.471Z,69.35
2018-06-21T02:17:27.036Z,69.64
2018-06-21T02:18:07.590Z,69.45
2018-06-21T02:18:48.174Z,69.45
2018-06-21T02:19:28.737Z,70.12
2018-06-21T02:20:09.300Z,69.54
2018-06-21T02:20:49.861Z,69.54
2018-06-21T02:21:30.417Z,69.54
2018-06-21T02:22:10.990Z,70.31
2018-06-21T02:22:51.546Z,70.21
2018-06-21T02:23:32.123Z,70.21
2018-06-21T02:24:12.691Z,69.93
2018-06-21T02:24:53.256Z,70.21
2018-06-21T02:25:33.830Z,70.31
2018-06-21T02:26:14.399Z,70.21
2018-06-21T02:26:54.955Z,70.5
2018-06-21T02:27:35.545Z,70.6
2018-06-21T02:28:16.134Z,70.6
2018-06-21T02:28:56.737Z,70.12
2018-06-21T02:29:37.309Z,69.73
2018-06-21T02:30:17.873Z,70.21
2018-06-21T02:30:58.438Z,70.31
2018-06-21T02:31:39.012Z,70.31
2018-06-21T02:32:19.585Z,69.73
2018-06-21T02:33:00.137Z,69.93
2018-06-21T02:33:40.725Z,69.83
2018-06-21T02:34:21.346Z,70.41
2018-06-21T02:35:01.855Z,70.31
2018-06-21T02:35:42.421Z,69.54
2018-06-21T02:36:22.991Z,69.64
2018-06-21T02:37:03.564Z,69.54
2018-06-21T02:37:44.170Z,69.45
2018-06-21T02:38:24.757Z,69.73
2018-06-21T02:39:05.323Z,69.45
2018-06-21T02:39:45.982Z,69.45
2018-06-21T02:40:26.548Z,69.54
2018-06-21T02:41:07.099Z,69.35
2018-06-21T02:41:47.681Z,69.64
2018-06-21T02:42:28.227Z,69.35
2018-06-21T02:43:08.803Z,69.54
2018-06-21T02:43:49.385Z,69.64
2018-06-21T02:44:29.957Z,69.54
2018-06-21T02:45:10.534Z,69.64
2018-06-21T02:45:51.200Z,69.54
2018-06-21T02:46:31.765Z,69.35
2018-06-21T02:47:12.327Z,69.45
2018-06-21T02:47:52.868Z,69.54
2018-06-21T02:48:33.428Z,69.64
2018-06-21T02:49:14.001Z,69.45
2018-06-21T02:49:54.565Z,69.35
2018-06-21T02:50:35.124Z,69.64
2018-06-21T02:51:15.713Z,69.54
2018-06-21T02:51:56.291Z,69.73
2018-06-21T02:52:36.846Z,69.73
2018-06-21T02:53:17.474Z,69.45
2018-06-21T02:53:58.023Z,69.45
2018-06-21T02:54:38.590Z,68.96
2018-06-21T02:55:19.145Z,69.64
2018-06-21T02:55:59.724Z,69.35
2018-06-21T02:56:40.283Z,69.73
2018-06-21T02:57:20.859Z,69.54
2018-06-21T02:58:01.416Z,69.54
2018-06-21T02:58:41.989Z,69.45
2018-06-21T02:59:22.549Z,69.25
2018-06-21T03:00:03.123Z,69.54
2018-06-21T03:00:43.705Z,69.73
2018-06-21T03:01:24.294Z,69.45
2018-06-21T03:02:04.867Z,69.54
2018-06-21T03:02:45.411Z,69.54
2018-06-21T03:03:25.996Z,69.45
2018-06-21T03:04:06.744Z,69.45
2018-06-21T03:04:47.137Z,69.35
2018-06-21T03:05:27.706Z,69.54
2018-06-21T03:06:08.266Z,69.35
2018-06-21T03:06:48.808Z,69.54
2018-06-21T03:07:29.364Z,69.35
2018-06-21T03:08:09.928Z,70.02
2018-06-21T03:08:50.505Z,70.12
2018-06-21T03:09:31.066Z,69.93
2018-06-21T03:10:11.665Z,70.02
2018-06-21T03:10:52.229Z,69.83
2018-06-21T03:11:32.772Z,70.12
2018-06-21T03:12:13.333Z,69.64
2018-06-21T03:12:53.903Z,69.73
2018-06-21T03:13:34.494Z,69.73
2018-06-21T03:14:15.051Z,69.64
2018-06-21T03:14:55.609Z,69.64
2018-06-21T03:15:36.189Z,69.73
2018-06-21T03:16:16.760Z,69.54
2018-06-21T03:16:57.400Z,69.93
2018-06-21T03:17:37.992Z,70.21
2018-06-21T03:18:18.554Z,69.54
2018-06-21T03:18:59.129Z,69.54
2018-06-21T03:19:39.730Z,69.64
2018-06-21T03:20:20.277Z,69.64
2018-06-21T03:21:00.867Z,69.45
2018-06-21T03:21:41.426Z,69.45
2018-06-21T03:22:21.988Z,69.54
2018-06-21T03:23:02.692Z,69.54
2018-06-21T03:23:43.286Z,69.54
2018-06-21T03:24:23.869Z,69.64
2018-06-21T03:25:04.417Z,69.54
2018-06-21T03:25:44.966Z,69.54
2018-06-21T03:26:25.542Z,69.64
2018-06-21T03:27:06.111Z,69.54
2018-06-21T03:27:46.666Z,69.54
2018-06-21T03:28:27.242Z,69.35
2018-06-21T03:29:07.967Z,69.48
2018-06-21T03:29:48.550Z,69.35
2018-06-21T03:30:29.092Z,69.73
2018-06-21T03:31:09.637Z,69.73
2018-06-21T03:31:50.209Z,69.45
2018-06-21T03:32:30.781Z,69.54
2018-06-21T03:33:11.346Z,69.35
2018-06-21T03:33:51.940Z,69.45
2018-06-21T03:34:32.505Z,69.64
2018-06-21T03:35:13.124Z,69.45
2018-06-21T03:35:53.661Z,69.54
2018-06-21T03:36:34.210Z,69.54
2018-06-21T03:37:14.790Z,69.45
2018-06-21T03:37:55.354Z,69.25
2018-06-21T03:38:35.943Z,69.64
2018-06-21T03:39:16.493Z,69.45
2018-06-21T03:39:57.053Z,69.25
2018-06-21T03:40:37.610Z,69.54
2018-06-21T03:41:18.167Z,69.35
2018-06-21T03:41:58.792Z,69.73
2018-06-21T03:42:39.347Z,69.54
2018-06-21T03:43:19.904Z,69.73
2018-06-21T03:44:00.480Z,69.64
2018-06-21T03:44:41.042Z,69.35
2018-06-21T03:45:21.643Z,69.67
2018-06-21T03:46:02.176Z,69.67
2018-06-21T03:46:42.799Z,69.45
2018-06-21T03:47:23.348Z,69.54
2018-06-21T03:48:03.888Z,69.64
2018-06-21T03:48:44.457Z,69.57
2018-06-21T03:49:25.026Z,69.67
2018-06-21T03:50:05.583Z,69.19
2018-06-21T03:50:46.142Z,69.45
2018-06-21T03:51:26.701Z,69.48
2018-06-21T03:52:07.324Z,68.77
2018-06-21T03:52:47.855Z,68.71
2018-06-21T03:53:28.412Z,68.8
2018-06-21T03:54:08.957Z,69.09
2018-06-21T03:54:49.500Z,69.38
2018-06-21T03:55:30.057Z,69.38
2018-06-21T03:56:10.616Z,69.29
2018-06-21T03:56:51.180Z,69.29
2018-06-21T03:57:31.727Z,68.96
2018-06-21T03:58:12.285Z,69.38
2018-06-21T03:58:52.818Z,69.77
2018-06-21T03:59:33.388Z,69.45
2018-06-21T04:00:13.935Z,69.48
2018-06-21T04:00:54.468Z,69.45
2018-06-21T04:01:35.007Z,69.25
2018-06-21T04:02:15.575Z,69.25
2018-06-21T04:02:56.232Z,69.64
2018-06-21T04:03:36.803Z,69.64
2018-06-21T04:04:17.343Z,69.54
2018-06-21T04:04:58.010Z,69.73
2018-06-21T04:05:38.551Z,69.73
2018-06-21T04:06:19.111Z,69.73
2018-06-21T04:06:59.672Z,69.54
2018-06-21T04:07:40.242Z,69.25
2018-06-21T04:08:20.866Z,69.45
2018-06-21T04:09:01.395Z,69.25
2018-06-21T04:09:41.946Z,69.45
2018-06-21T04:10:22.529Z,70.21
2018-06-21T04:11:03.147Z,69.93
2018-06-21T04:11:43.699Z,69.54
2018-06-21T04:12:24.303Z,69.64
2018-06-21T04:13:04.839Z,69.64
2018-06-21T04:13:45.387Z,69.54
2018-06-21T04:14:25.953Z,70.12
2018-06-21T04:15:06.515Z,70.02
2018-06-21T04:15:47.080Z,70.02
2018-06-21T04:16:27.614Z,70.31
2018-06-21T04:17:08.174Z,69.73
2018-06-21T04:17:48.716Z,70.25
2018-06-21T04:18:29.276Z,69.67
2018-06-21T04:19:09.828Z,69.57
2018-06-21T04:19:50.411Z,69.57
2018-06-21T04:20:30.989Z,69.38
2018-06-21T04:21:11.548Z,69.38
2018-06-21T04:21:52.116Z,69.57
2018-06-21T04:22:32.663Z,69.48
2018-06-21T04:23:13.214Z,69.29
2018-06-21T04:23:53.803Z,69.67
2018-06-21T04:24:34.356Z,69.48
2018-06-21T04:25:14.904Z,69.29
2018-06-21T04:25:55.455Z,69.87
2018-06-21T04:26:36.037Z,69.48
2018-06-21T04:27:16.641Z,69.29
2018-06-21T04:27:57.204Z,69.67
2018-06-21T04:28:37.764Z,69.57
2018-06-21T04:29:18.365Z,69.38
2018-06-21T04:29:58.888Z,68.99
2018-06-21T04:30:39.469Z,69.29
2018-06-21T04:31:20.029Z,68.99
2018-06-21T04:32:00.604Z,69.09
2018-06-21T04:32:41.168Z,68.71
2018-06-21T04:33:21.728Z,68.71
2018-06-21T04:34:02.292Z,68.52
2018-06-21T04:34:42.848Z,68.99
2018-06-21T04:35:23.418Z,68.61
2018-06-21T04:36:03.962Z,68.52
2018-06-21T04:36:44.531Z,68.42
2018-06-21T04:37:25.093Z,68.61
2018-06-21T04:38:05.668Z,68.52
2018-06-21T04:38:46.230Z,68.32
2018-06-21T04:39:26.799Z,67.94
2018-06-21T04:40:07.379Z,68.07
2018-06-21T04:40:47.943Z,68.23
2018-06-21T04:41:28.500Z,68.23
2018-06-21T04:42:09.057Z,68.13
2018-06-21T04:42:49.616Z,68.13
2018-06-21T04:43:30.181Z,68.32
2018-06-21T04:44:10.743Z,67.78
2018-06-21T04:44:51.306Z,67.68
2018-06-21T04:45:31.867Z,67.88
2018-06-21T04:46:12.412Z,67.78
2018-06-21T04:46:52.987Z,67.78
2018-06-21T04:47:33.549Z,67.49
2018-06-21T04:48:14.109Z,67.49
2018-06-21T04:48:54.639Z,67.68
2018-06-21T04:49:35.208Z,67.4
2018-06-21T04:50:15.762Z,67.1
2018-06-21T04:50:56.329Z,67.1
2018-06-21T04:51:36.903Z,67.49
2018-06-21T04:52:17.460Z,67.49
2018-06-21T04:52:58.020Z,67.68
2018-06-21T04:53:38.592Z,67.2
2018-06-21T04:54:19.150Z,67.4
2018-06-21T04:54:59.704Z,67.4
2018-06-21T04:55:40.265Z,67.1
2018-06-21T04:56:20.835Z,67
2018-06-21T04:57:01.401Z,67.58
2018-06-21T04:57:41.953Z,67.1
2018-06-21T04:58:22.524Z,66.91
2018-06-21T04:59:03.097Z,66.91
2018-06-21T04:59:43.657Z,66.91
2018-06-21T05:00:24.238Z,66.62
2018-06-21T05:01:04.806Z,66.91
2018-06-21T05:01:45.377Z,67
2018-06-21T05:02:25.948Z,67
2018-06-21T05:03:06.501Z,66.91
2018-06-21T05:03:47.080Z,67
2018-06-21T05:04:27.652Z,67
2018-06-21T05:05:08.205Z,66.43
2018-06-21T05:05:48.771Z,66.43
2018-06-21T05:06:29.363Z,66.66
2018-06-21T05:07:09.934Z,66.56
2018-06-21T05:07:50.509Z,66.56
2018-06-21T05:08:31.078Z,66.56
2018-06-21T05:09:11.662Z,66.94
2018-06-21T05:09:52.266Z,66.56
2018-06-21T05:10:32.840Z,66.94
2018-06-21T05:11:13.422Z,66.85
2018-06-21T05:11:54.015Z,66.85
2018-06-21T05:12:34.570Z,66.46
2018-06-21T05:13:15.141Z,66.36
2018-06-21T05:13:55.707Z,66.46
2018-06-21T05:14:36.283Z,66.46
2018-06-21T05:15:16.906Z,66.46
2018-06-21T05:15:57.521Z,65.98
2018-06-21T05:16:38.050Z,66.27
2018-06-21T05:17:18.604Z,66.27
2018-06-21T05:17:59.155Z,65.59
2018-06-21T05:18:39.721Z,65.78
2018-06-21T05:19:20.278Z,65.69
2018-06-21T05:20:00.868Z,65.78
2018-06-21T05:20:41.446Z,65.59
2018-06-21T05:21:22.027Z,66.01
2018-06-21T05:22:02.650Z,65.14
2018-06-21T05:22:43.214Z,65.53
2018-06-21T05:23:23.788Z,65.53
2018-06-21T05:24:04.369Z,65.34
2018-06-21T05:24:44.946Z,65.24
2018-06-21T05:25:25.515Z,64.86
2018-06-21T05:26:06.090Z,65.34
2018-06-21T05:26:46.654Z,65.24
2018-06-21T05:27:27.217Z,64.98
2018-06-21T05:28:07.801Z,64.79
2018-06-21T05:28:48.380Z,64.79
2018-06-21T05:29:28.971Z,64.89
2018-06-21T05:30:09.571Z,64.89
2018-06-21T05:30:50.139Z,64.92
2018-06-21T05:31:30.753Z,64.14
2018-06-21T05:32:11.381Z,63.85
2018-06-21T05:32:51.905Z,63.47
2018-06-21T05:33:32.460Z,63.76
2018-06-21T05:34:13.020Z,63.47
2018-06-21T05:34:53.579Z,63.18
2018-06-21T05:35:34.150Z,62.92
2018-06-21T05:36:14.718Z,63.6
2018-06-21T05:36:55.293Z,62.82
2018-06-21T05:37:35.944Z,62.63
2018-06-21T05:38:16.523Z,62.47
2018-06-21T05:38:57.090Z,62.18
2018-06-21T05:39:37.681Z,62.18
2018-06-21T05:40:18.254Z,61.79
2018-06-21T05:40:58.824Z,61.3
2018-06-21T05:41:39.388Z,61.11
2018-06-21T05:42:19.956Z,60.82
2018-06-21T05:43:00.537Z,60.92
2018-06-21T05:43:41.081Z,60.44
2018-06-21T05:44:21.673Z,61.11
2018-06-21T05:45:02.218Z,61.11
2018-06-21T05:45:42.777Z,61.11
2018-06-21T05:46:23.362Z,61.21
2018-06-21T05:47:03.899Z,61.79
2018-06-21T05:47:44.461Z,61.4
2018-06-21T05:48:25.032Z,60.53
2018-06-21T05:49:05.636Z,60.92
2018-06-21T05:49:46.258Z,59.69
2018-06-21T05:50:26.823Z,59.5
2018-06-21T05:51:07.386Z,59.5
2018-06-21T05:51:47.955Z,59.59
2018-06-21T05:52:28.528Z,59.4
2018-06-21T05:53:09.094Z,59.31
2018-06-21T05:53:49.658Z,59.11
2018-06-21T05:54:30.228Z,58.82
2018-06-21T05:55:10.874Z,58.82
2018-06-21T05:55:51.453Z,58.95
2018-06-21T05:56:32.091Z,58.85
2018-06-21T05:57:12.642Z,59.14
2018-06-21T05:57:53.212Z,59.05
2018-06-21T05:58:33.784Z,60.21
2018-06-21T05:59:14.346Z,60.59
2018-06-21T05:59:54.911Z,59.91
2018-06-21T06:00:35.473Z,59.53
2018-06-21T06:01:16.071Z,58.78
2018-06-21T06:01:56.686Z,58.69
2018-06-21T06:02:37.227Z,58.69
2018-06-21T06:03:17.830Z,58.27
2018-06-21T06:03:58.400Z,57.81
2018-06-21T06:04:38.958Z,58.01
2018-06-21T06:05:19.537Z,58.59
2018-06-21T06:06:00.117Z,58.59
2018-06-21T06:06:40.706Z,58.59
2018-06-21T06:07:21.303Z,57.91
2018-06-21T06:08:01.860Z,57.04
2018-06-21T06:08:42.418Z,57.04
2018-06-21T06:09:22.943Z,56.75
2018-06-21T06:10:03.520Z,57.01
2018-06-21T06:10:44.075Z,57.04
2018-06-21T06:11:24.677Z,57.11
2018-06-21T06:12:05.177Z,57.79
2018-06-21T06:12:45.730Z,58.95
2018-06-21T06:13:26.286Z,58.88
2018-06-21T06:14:06.920Z,58.88
2018-06-21T06:14:47.373Z,58.39
2018-06-21T06:15:27.953Z,57.62
2018-06-21T06:16:08.530Z,57.53
2018-06-21T06:16:49.060Z,57.43
2018-06-21T06:17:29.673Z,57.53
2018-06-21T06:18:10.219Z,57.11
2018-06-21T06:18:50.817Z,56.82
2018-06-21T06:19:31.400Z,57.01
2018-06-21T06:20:11.968Z,57.88
2018-06-21T06:20:52.514Z,57.98
2018-06-21T06:21:33.089Z,57.79
2018-06-21T06:22:13.662Z,58.37
2018-06-21T06:22:54.229Z,58.88
2018-06-21T06:23:34.777Z,58.59
2018-06-21T06:24:15.364Z,58.01
2018-06-21T06:24:55.929Z,57.62
2018-06-21T06:25:36.522Z,57.23
2018-06-21T06:26:17.107Z,56.94
2018-06-21T06:26:57.742Z,57.04
2018-06-21T06:27:38.318Z,57.14
2018-06-21T06:28:18.890Z,57.43
2018-06-21T06:28:59.458Z,57.62
2018-06-21T06:29:40.048Z,57.62
2018-06-21T06:30:20.728Z,56.85
2018-06-21T06:31:01.284Z,56.94
2018-06-21T06:31:41.880Z,56.94
2018-06-21T06:32:22.608Z,57.14
2018-06-21T06:33:03.172Z,57.23
2018-06-21T06:33:43.830Z,56.87
2018-06-21T06:34:24.859Z,56.2
2018-06-21T06:35:05.438Z,56.1
2018-06-21T06:35:45.954Z,55.32
2018-06-21T06:36:26.545Z,55.2
2018-06-21T06:37:07.129Z,55.2
2018-06-21T06:37:47.734Z,55.3
2018-06-21T06:38:28.313Z,55.78
2018-06-21T06:39:08.869Z,56.16
2018-06-21T06:39:49.403Z,56.24
2018-06-21T06:40:30.126Z,56.52
2018-06-21T06:41:10.635Z,57.11
2018-06-21T06:41:51.193Z,57.11
2018-06-21T06:42:31.762Z,56.92
2018-06-21T06:43:12.366Z,56.92
2018-06-21T06:43:52.926Z,57.4
2018-06-21T06:44:33.562Z,57.88
2018-06-21T06:45:14.152Z,57.98
2018-06-21T06:45:54.799Z,57.98
2018-06-21T06:46:35.445Z,57.69
2018-06-21T06:47:16.061Z,57.98
2018-06-21T06:47:56.664Z,57.79
2018-06-21T06:48:37.230Z,57.56
2018-06-21T06:49:17.854Z,57.79
2018-06-21T06:49:58.703Z,57.46
2018-06-21T06:50:39.487Z,57.46
2018-06-21T06:51:20.102Z,57.56
2018-06-21T06:52:00.750Z,58.24
2018-06-21T06:52:41.356Z,57.86
2018-06-21T06:53:21.949Z,58.04
2018-06-21T06:54:02.527Z,58.04
2018-06-21T06:54:43.197Z,57.76
2018-06-21T06:55:23.728Z,57.95
2018-06-21T06:56:04.296Z,57.76
2018-06-21T06:56:44.889Z,57.82
2018-06-21T06:57:25.499Z,57.95
2018-06-21T06:58:06.066Z,58.02
2018-06-21T06:58:46.621Z,58.44
2018-06-21T06:59:27.211Z,58.53
2018-06-21T07:00:07.774Z,57.92
2018-06-21T07:00:48.334Z,58.12
2018-06-21T07:01:28.911Z,57.92
2018-06-21T07:02:09.511Z,57.82
2018-06-21T07:02:50.109Z,58.21
2018-06-21T07:03:30.656Z,58.31
2018-06-21T07:04:11.211Z,58.31
2018-06-21T07:04:51.770Z,57.82
2018-06-21T07:05:32.581Z,58.31
2018-06-21T07:06:13.382Z,58.31
2018-06-21T07:06:54.104Z,58.4
2018-06-21T07:07:34.804Z,58.31
2018-06-21T07:08:15.500Z,58.8
2018-06-21T07:08:56.042Z,58.8
2018-06-21T07:09:36.605Z,58.7
2018-06-21T07:10:17.144Z,59.18
2018-06-21T07:10:57.740Z,58.98
2018-06-21T07:11:38.297Z,58.89
2018-06-21T07:12:18.906Z,58.8
2018-06-21T07:12:59.458Z,58.7
2018-06-21T07:13:40.007Z,58.8
2018-06-21T07:14:20.709Z,58.7
2018-06-21T07:15:01.171Z,58.7
2018-06-21T07:15:41.738Z,59.08
2018-06-21T07:16:22.271Z,58.8
2018-06-21T07:17:02.915Z,58.7
2018-06-21T07:17:43.511Z,59.08
2018-06-21T07:18:24.066Z,60.27
2018-06-21T07:19:04.633Z,60.47
2018-06-21T07:19:45.243Z,60.37
2018-06-21T07:20:25.800Z,60.08
2018-06-21T07:21:06.316Z,58.92
2018-06-21T07:21:46.870Z,60.11
2018-06-21T07:22:27.478Z,61.27
2018-06-21T07:23:08.185Z,58.27
2018-06-21T07:23:48.988Z,56.92
2018-06-21T07:24:29.543Z,56.34
2018-06-21T07:25:10.107Z,55.76
2018-06-21T07:25:50.699Z,55.66
2018-06-21T07:26:31.290Z,55.85
2018-06-21T07:27:11.912Z,55.66
2018-06-21T07:27:52.442Z,56.24
2018-06-21T07:28:33.139Z,56.43
2018-06-21T07:29:13.588Z,57.3
2018-06-21T07:29:54.132Z,57.3
2018-06-21T07:30:34.699Z,57.01
2018-06-21T07:31:15.341Z,56.82
2018-06-21T07:31:55.942Z,56.34
2018-06-21T07:32:36.509Z,56.94
2018-06-21T07:33:17.103Z,57.62
2018-06-21T07:33:57.712Z,56.85
2018-06-21T07:34:38.469Z,56.75
2018-06-21T07:35:19.043Z,55.68
2018-06-21T07:35:59.645Z,55.68
2018-06-21T07:36:40.283Z,56.1
2018-06-21T07:37:21.071Z,55.22
2018-06-21T07:38:01.631Z,55.42
2018-06-21T07:38:42.330Z,53.99
2018-06-21T07:39:23.046Z,54.67
2018-06-21T07:40:03.616Z,54.09
2018-06-21T07:40:44.296Z,54.19
2018-06-21T07:41:25.015Z,53.89
2018-06-21T07:42:05.569Z,53.05
2018-06-21T07:42:46.427Z,52.76
2018-06-21T07:43:26.990Z,52.73
2018-06-21T07:44:07.515Z,52.73
2018-06-21T07:44:48.192Z,53.8
2018-06-21T07:45:28.789Z,53.05
2018-06-21T07:46:09.395Z,51.89
2018-06-21T07:46:49.990Z,51.59
2018-06-21T07:47:30.651Z,51.11
2018-06-21T07:48:11.225Z,50.92
2018-06-21T07:48:51.783Z,50.72
2018-06-21T07:49:32.367Z,51.01
2018-06-21T07:50:12.999Z,50.62
2018-06-21T07:50:53.556Z,51.01
2018-06-21T07:51:34.131Z,50.62
2018-06-21T07:52:14.684Z,49.95
2018-06-21T07:52:55.230Z,49.66
2018-06-21T07:53:35.799Z,49.85
2018-06-21T07:54:16.396Z,49.85
2018-06-21T07:54:57.288Z,49.95
2018-06-21T07:55:37.842Z,49.95
2018-06-21T07:56:18.828Z,49.85
2018-06-21T07:56:59.563Z,49.75
2018-06-21T07:57:40.286Z,50.24
2018-06-21T07:58:22.884Z,49.85
2018-06-21T07:59:03.774Z,49.95
2018-06-21T07:59:44.432Z,50.14
2018-06-21T08:00:25.393Z,49.56
2018-06-21T08:01:06.454Z,49.27
2018-06-21T08:01:47.514Z,48.97
2018-06-21T08:02:28.885Z,48.78
2018-06-21T08:03:09.560Z,49.19
2018-06-21T08:03:50.239Z,49.1
2018-06-21T08:04:30.834Z,48.9
2018-06-21T08:05:11.569Z,48.9
2018-06-21T08:05:52.469Z,48.61
2018-06-21T08:06:33.037Z,48.59
2018-06-21T08:07:13.626Z,49.66
2018-06-21T08:07:54.206Z,49.27
2018-06-21T08:08:34.781Z,49.75
2018-06-21T08:09:15.371Z,49.85
2018-06-21T08:09:55.913Z,49.37
2018-06-21T08:10:36.519Z,49.56
2018-06-21T08:11:17.096Z,49.46
2018-06-21T08:11:57.661Z,49.37
2018-06-21T08:12:38.225Z,49.37
2018-06-21T08:13:18.833Z,49.17
2018-06-21T08:13:59.404Z,49.07
2018-06-21T08:14:39.998Z,49.27
2018-06-21T08:15:20.644Z,48.97
2018-06-21T08:16:01.214Z,49.56
2018-06-21T08:16:41.895Z,49.63
2018-06-21T08:17:22.430Z,49.75
2018-06-21T08:18:02.997Z,49.54
2018-06-21T08:18:43.556Z,49.85
2018-06-21T08:19:24.099Z,49.37
2018-06-21T08:20:04.664Z,49.15
2018-06-21T08:20:45.226Z,49.24
2018-06-21T08:21:25.845Z,49.73
2018-06-21T08:22:06.392Z,49.92
2018-06-21T08:22:46.946Z,49.85
2018-06-21T08:23:27.553Z,49.92
2018-06-21T08:24:08.072Z,50.02
2018-06-21T08:24:48.651Z,50.31
2018-06-21T08:25:29.206Z,49.95
2018-06-21T08:26:09.762Z,50.6
2018-06-21T08:26:50.387Z,49.92
2018-06-21T08:27:30.963Z,50.62
2018-06-21T08:28:11.505Z,50.7
2018-06-21T08:28:52.069Z,50.99
2018-06-21T08:29:32.631Z,51.11
2018-06-21T08:30:13.191Z,51.21
2018-06-21T08:30:53.764Z,51.01
2018-06-21T08:31:34.333Z,50.82
2018-06-21T08:32:14.963Z,50.72
2018-06-21T08:32:55.482Z,50.43
2018-06-21T08:33:36.035Z,50.04
2018-06-21T08:34:16.605Z,49.24
2018-06-21T08:34:57.170Z,48.78
2018-06-21T08:35:37.807Z,48.66
2018-06-21T08:36:18.630Z,48.47
2018-06-21T08:36:59.182Z,48.76
2018-06-21T08:37:39.871Z,48.85
2018-06-21T08:38:20.315Z,48.85
2018-06-21T08:39:01.139Z,48.95
2018-06-21T08:39:41.839Z,49.44
2018-06-21T08:40:22.431Z,49.34
2018-06-21T08:41:03.003Z,49.34
2018-06-21T08:41:43.527Z,49.82
2018-06-21T08:42:24.127Z,49.73
2018-06-21T08:43:04.679Z,49.73
2018-06-21T08:43:45.278Z,49.92
2018-06-21T08:44:25.977Z,49.92